Time;durP1;ratioP1;P1;durP2;ratioP2;P2;SDS_P1;SDS_P2;PMS_P1;PMS_P2;Temp;Humidity;BMP_temperature;BMP_pressure;BME280_temperature;BME280_humidity;BME280_pressure;Samples;Min_cycle;Max_cycle;Signal;HPM_P1;HPM_P2
2021/03/26 00:00:50;;;;;;;13.00;11.73;;;9.30;97.30;;;;;;4811066;29;20323;-80
2021/03/26 00:03:20;;;;;;;13.68;11.25;;;9.30;97.40;;;;;;4810796;29;20289;-79
2021/03/26 00:05:47;;;;;;;13.82;12.32;;;9.30;97.50;;;;;;4810744;29;20268;-80
2021/03/26 00:08:15;;;;;;;12.02;11.00;;;9.40;97.60;;;;;;4810771;29;20219;-77
2021/03/26 00:10:41;;;;;;;10.52;9.45;;;9.40;97.60;;;;;;4810836;29;20223;-78
2021/03/26 00:13:08;;;;;;;12.60;11.20;;;9.50;97.70;;;;;;4810805;29;20679;-79
2021/03/26 00:15:35;;;;;;;12.57;10.77;;;9.50;97.80;;;;;;4811251;29;20271;-79
2021/03/26 00:18:03;;;;;;;11.35;9.40;;;9.50;97.70;;;;;;4811343;29;20230;-79
2021/03/26 00:20:29;;;;;;;17.93;12.70;;;9.60;97.70;;;;;;4811163;29;20222;-79
2021/03/26 00:22:55;;;;;;;11.20;10.00;;;9.70;97.50;;;;;;4811168;29;20472;-79
2021/03/26 00:25:22;;;;;;;11.17;10.17;;;9.70;97.20;;;;;;4811121;29;20545;-79
2021/03/26 00:27:48;;;;;;;13.07;11.70;;;9.70;97.20;;;;;;4811040;29;21069;-79
2021/03/26 00:30:17;;;;;;;10.50;9.43;;;9.70;97.10;;;;;;4811329;29;20276;-79
2021/03/26 00:32:43;;;;;;;10.80;9.77;;;9.70;97.00;;;;;;4811026;29;20218;-79
2021/03/26 00:35:13;;;;;;;11.80;10.60;;;9.80;97.00;;;;;;4811305;29;20456;-79
2021/03/26 00:37:40;;;;;;;13.25;10.60;;;9.80;97.00;;;;;;4811030;29;20498;-79
2021/03/26 00:40:09;;;;;;;13.73;10.70;;;9.80;97.00;;;;;;4812493;29;20684;-79
2021/03/26 00:42:36;;;;;;;21.05;12.15;;;9.60;97.00;;;;;;4814413;29;20217;-79
2021/03/26 00:45:03;;;;;;;13.75;12.55;;;9.50;97.20;;;;;;4809668;29;20239;-78
2021/03/26 00:47:29;;;;;;;11.90;10.70;;;9.60;97.20;;;;;;4812697;29;20242;-81
2021/03/26 00:49:55;;;;;;;10.88;9.77;;;9.50;97.10;;;;;;4812769;29;21004;-80
2021/03/26 00:52:22;;;;;;;11.95;10.65;;;9.50;97.20;;;;;;4812614;29;20299;-81
2021/03/26 00:54:49;;;;;;;13.25;11.80;;;9.50;97.40;;;;;;4815149;29;20222;-81
2021/03/26 00:57:15;;;;;;;12.18;10.90;;;9.30;97.40;;;;;;4812987;29;20245;-80
2021/03/26 00:59:42;;;;;;;14.35;11.07;;;9.20;97.60;;;;;;4813636;29;20225;-80
2021/03/26 01:02:08;;;;;;;12.00;10.60;;;9.10;97.80;;;;;;4813500;29;20214;-81
2021/03/26 01:04:35;;;;;;;12.10;10.98;;;9.00;98.10;;;;;;4813178;29;20718;-78
2021/03/26 01:07:01;;;;;;;14.35;11.63;;;9.00;98.20;;;;;;4813446;29;20235;-78
2021/03/26 01:09:28;;;;;;;10.88;9.77;;;9.00;98.30;;;;;;4810824;29;20734;-81
2021/03/26 01:11:54;;;;;;;12.63;9.70;;;9.00;98.50;;;;;;4811389;29;20215;-81
2021/03/26 01:14:22;;;;;;;12.95;11.65;;;9.00;98.70;;;;;;4809089;29;20212;-78
2021/03/26 01:16:48;;;;;;;13.00;11.10;;;8.90;98.80;;;;;;4809306;29;20662;-81
2021/03/26 01:19:16;;;;;;;16.27;10.95;;;8.90;98.90;;;;;;4814216;29;20215;-80
2021/03/26 01:21:42;;;;;;;11.13;9.45;;;8.90;99.00;;;;;;4815333;29;20223;-80
2021/03/26 01:24:13;;;;;;;12.65;10.48;;;8.80;99.10;;;;;;4815027;29;20238;-80
2021/03/26 01:26:40;;;;;;;12.95;11.48;;;8.80;99.20;;;;;;4815189;29;20238;-80
2021/03/26 01:29:07;;;;;;;11.77;10.60;;;8.80;99.20;;;;;;4813989;29;20272;-80
2021/03/26 01:31:33;;;;;;;12.32;10.98;;;8.90;99.40;;;;;;4813168;29;20217;-80
2021/03/26 01:34:00;;;;;;;12.43;10.82;;;8.80;99.50;;;;;;4814596;29;20549;-80
2021/03/26 01:36:27;;;;;;;13.30;11.82;;;8.90;99.60;;;;;;4814632;29;20230;-80
2021/03/26 01:38:53;;;;;;;13.27;11.93;;;8.90;99.60;;;;;;4814493;29;20219;-80
2021/03/26 01:41:32;;;;;;;12.27;10.98;;;8.90;99.60;;;;;;4814097;29;20211;-81
2021/03/26 01:43:59;;;;;;;11.25;10.10;;;8.90;99.60;;;;;;4813866;29;20231;-80
2021/03/26 01:46:26;;;;;;;11.35;10.40;;;8.90;99.60;;;;;;4813915;29;20239;-80
2021/03/26 01:48:56;;;;;;;10.27;9.27;;;8.90;99.50;;;;;;4814329;29;20216;-80
2021/03/26 01:51:24;;;;;;;10.65;9.65;;;8.90;99.50;;;;;;4813257;29;20229;-80
2021/03/26 01:53:52;;;;;;;10.10;9.05;;;9.00;99.50;;;;;;4812760;29;20268;-80
2021/03/26 01:56:19;;;;;;;12.50;11.45;;;9.00;99.40;;;;;;4814112;29;20322;-80
2021/03/26 01:58:45;;;;;;;11.65;10.48;;;8.90;99.30;;;;;;4814249;29;20215;-80
2021/03/26 02:01:17;;;;;;;13.32;10.05;;;8.90;99.40;;;;;;4813905;29;20227;-80
2021/03/26 02:03:46;;;;;;;11.35;10.25;;;8.90;99.40;;;;;;4813078;29;20283;-80
2021/03/26 02:06:16;;;;;;;11.68;10.18;;;8.90;99.40;;;;;;4813029;29;20242;-80
2021/03/26 02:08:44;;;;;;;11.10;9.93;;;8.80;99.40;;;;;;4813250;29;20216;-80
2021/03/26 02:11:18;;;;;;;11.68;10.40;;;8.70;99.40;;;;;;4813586;29;20678;-80
2021/03/26 02:13:45;;;;;;;11.75;10.50;;;8.70;99.70;;;;;;4814035;29;20221;-79
2021/03/26 02:16:14;;;;;;;13.60;11.65;;;8.70;99.90;;;;;;4813778;29;20257;-79
2021/03/26 02:18:42;;;;;;;11.70;10.35;;;8.60;99.90;;;;;;4812603;29;20222;-79
2021/03/26 02:21:13;;;;;;;11.43;9.85;;;8.60;99.90;;;;;;4814624;29;20766;-79
2021/03/26 02:23:40;;;;;;;10.13;9.05;;;8.50;99.90;;;;;;4814774;29;20234;-79
2021/03/26 02:26:13;;;;;;;12.43;8.75;;;8.50;99.90;;;;;;4815566;29;20268;-79
2021/03/26 02:28:39;;;;;;;11.20;9.70;;;8.40;99.90;;;;;;4816393;29;20215;-79
2021/03/26 02:31:05;;;;;;;11.48;10.40;;;8.40;99.90;;;;;;4814374;29;20702;-79
2021/03/26 02:33:32;;;;;;;11.88;10.73;;;8.30;99.90;;;;;;4814258;29;20214;-79
2021/03/26 02:36:41;;;;;;;12.60;10.35;;;8.40;99.90;;;;;;4813078;29;20246;-79
2021/03/26 02:39:17;;;;;;;13.05;9.85;;;8.40;99.90;;;;;;4813855;29;20215;-79
2021/03/26 02:41:48;;;;;;;13.88;10.20;;;8.40;99.90;;;;;;4812719;29;20222;-79
2021/03/26 02:44:23;;;;;;;11.68;10.07;;;8.40;99.90;;;;;;4812805;29;20238;-79
2021/03/26 02:47:00;;;;;;;12.00;9.93;;;8.40;99.90;;;;;;4813391;29;20253;-79
2021/03/26 02:49:35;;;;;;;11.93;10.77;;;8.40;99.90;;;;;;4813745;29;20214;-79
2021/03/26 02:52:07;;;;;;;12.20;10.98;;;8.40;99.90;;;;;;4813326;29;20225;-79
2021/03/26 02:54:39;;;;;;;10.98;9.48;;;8.40;99.90;;;;;;4813707;29;20214;-79
2021/03/26 02:57:08;;;;;;;10.13;9.00;;;8.40;99.90;;;;;;4813029;29;20242;-79
2021/03/26 02:59:40;;;;;;;11.07;10.02;;;8.40;99.90;;;;;;4813340;29;20272;-79
2021/03/26 03:02:08;;;;;;;11.20;10.13;;;8.50;99.90;;;;;;4812537;29;20247;-79
2021/03/26 03:04:41;;;;;;;10.80;9.70;;;8.50;99.90;;;;;;4812609;29;20234;-79
2021/03/26 03:07:19;;;;;;;14.27;9.20;;;8.50;99.90;;;;;;4813071;29;20273;-79
2021/03/26 03:09:51;;;;;;;14.43;10.20;;;8.50;99.90;;;;;;4812717;29;20309;-79
2021/03/26 03:12:21;;;;;;;10.50;9.40;;;8.40;99.90;;;;;;4811956;29;20223;-80
2021/03/26 03:14:52;;;;;;;11.50;9.85;;;8.30;99.90;;;;;;4813050;29;20214;-79
2021/03/26 03:17:24;;;;;;;10.85;9.30;;;8.20;99.90;;;;;;4812281;29;20737;-79
2021/03/26 03:19:55;;;;;;;13.48;12.13;;;8.10;99.90;;;;;;4812579;29;20229;-78
2021/03/26 03:22:28;;;;;;;15.55;10.85;;;7.80;99.90;;;;;;4812660;29;20211;-79
2021/03/26 03:24:58;;;;;;;11.50;9.90;;;7.80;99.90;;;;;;4812113;29;20238;-79
2021/03/26 03:27:35;;;;;;;12.98;10.95;;;7.80;99.90;;;;;;4812743;29;20241;-79
2021/03/26 03:30:13;;;;;;;17.55;10.50;;;7.70;99.90;;;;;;4812275;29;20225;-79
2021/03/26 03:32:45;;;;;;;15.95;10.05;;;7.70;99.90;;;;;;4812415;29;20222;-79
2021/03/26 03:35:17;;;;;;;11.70;10.32;;;7.70;99.90;;;;;;4812614;29;20687;-79
2021/03/26 03:37:51;;;;;;;14.18;11.60;;;7.70;99.90;;;;;;4812753;29;20744;-79
2021/03/26 03:40:26;;;;;;;11.25;10.13;;;7.60;99.90;;;;;;4812745;29;20213;-79
2021/03/26 03:43:00;;;;;;;10.52;9.40;;;7.60;99.90;;;;;;4810939;29;20271;-79
2021/03/26 03:45:31;;;;;;;13.27;11.75;;;7.60;99.90;;;;;;4811844;29;20226;-79
2021/03/26 03:48:05;;;;;;;10.80;9.52;;;7.70;99.90;;;;;;4812151;29;20242;-79
2021/03/26 03:50:35;;;;;;;10.13;9.15;;;7.70;99.90;;;;;;4812843;29;20699;-79
2021/03/26 03:53:05;;;;;;;11.98;10.70;;;7.70;99.90;;;;;;4811827;29;20629;-79
2021/03/26 03:55:36;;;;;;;14.13;10.75;;;7.70;99.90;;;;;;4812026;29;20233;-79
2021/03/26 03:58:08;;;;;;;14.20;11.77;;;7.80;99.90;;;;;;4812585;29;20219;-78
2021/03/26 04:00:38;;;;;;;14.77;10.52;;;7.80;99.90;;;;;;4812219;29;20706;-79
2021/03/26 04:03:12;;;;;;;13.68;9.57;;;7.80;99.90;;;;;;4812177;29;20218;-79
2021/03/26 04:05:43;;;;;;;11.15;9.60;;;7.80;99.90;;;;;;4812141;29;20274;-79
2021/03/26 04:08:15;;;;;;;11.27;10.15;;;7.80;99.90;;;;;;4812692;29;20222;-79
2021/03/26 04:10:45;;;;;;;15.52;10.48;;;7.90;99.90;;;;;;4812476;29;20216;-79
2021/03/26 04:13:16;;;;;;;11.38;10.27;;;7.90;99.90;;;;;;4811696;29;20218;-79
2021/03/26 04:15:45;;;;;;;13.27;9.82;;;7.90;99.90;;;;;;4813938;29;20634;-79
2021/03/26 04:18:17;;;;;;;10.38;9.38;;;8.00;99.90;;;;;;4816036;29;20218;-79
2021/03/26 04:20:48;;;;;;;12.70;10.57;;;8.00;99.90;;;;;;4816701;29;20570;-79
2021/03/26 04:23:18;;;;;;;13.75;11.35;;;8.10;99.90;;;;;;4815671;29;20225;-79
2021/03/26 04:25:56;;;;;;;14.77;11.70;;;8.10;99.90;;;;;;4815053;29;20218;-79
2021/03/26 04:28:29;;;;;;;12.88;11.57;;;8.10;99.90;;;;;;4816097;29;20240;-79
2021/03/26 04:30:59;;;;;;;12.10;10.77;;;8.10;99.90;;;;;;4815365;29;20268;-79
2021/03/26 04:33:26;;;;;;;13.48;11.68;;;8.20;99.90;;;;;;4815332;29;20249;-79
2021/03/26 04:35:52;;;;;;;12.65;11.35;;;8.20;99.90;;;;;;4815851;29;20229;-79
2021/03/26 04:38:23;;;;;;;12.57;10.50;;;8.30;99.90;;;;;;4815330;29;20609;-79
2021/03/26 04:40:55;;;;;;;11.50;10.30;;;8.30;99.90;;;;;;4815418;29;20216;-79
2021/03/26 04:43:28;;;;;;;14.18;12.30;;;8.30;99.90;;;;;;4815443;29;20226;-79
2021/03/26 04:45:59;;;;;;;13.00;11.60;;;8.30;99.90;;;;;;4815479;29;20707;-79
2021/03/26 04:48:32;;;;;;;15.75;12.20;;;8.40;99.90;;;;;;4815477;29;20229;-79
2021/03/26 04:51:04;;;;;;;13.90;10.13;;;8.40;99.90;;;;;;4815735;29;20215;-80
2021/03/26 04:53:39;;;;;;;13.38;10.95;;;8.40;99.90;;;;;;4815479;29;20211;-79
2021/03/26 04:56:13;;;;;;;12.65;11.27;;;8.50;99.90;;;;;;4814862;29;20246;-79
2021/03/26 04:58:42;;;;;;;12.40;11.25;;;8.50;99.90;;;;;;4815652;29;20304;-80
2021/03/26 05:01:12;;;;;;;14.27;11.48;;;8.50;99.90;;;;;;4815169;29;20238;-80
2021/03/26 05:03:42;;;;;;;15.35;12.10;;;8.50;99.90;;;;;;4815516;29;20234;-80
2021/03/26 05:06:14;;;;;;;13.38;10.90;;;8.50;99.90;;;;;;4814672;29;20610;-79
2021/03/26 05:08:43;;;;;;;13.30;10.18;;;8.50;99.90;;;;;;4814819;29;20214;-78
2021/03/26 05:11:12;;;;;;;15.77;14.13;;;8.50;99.90;;;;;;4815487;29;20215;-80
2021/03/26 05:13:42;;;;;;;15.07;11.65;;;8.50;99.90;;;;;;4814680;29;20268;-79
2021/03/26 05:16:13;;;;;;;15.65;11.60;;;8.50;99.90;;;;;;4814695;29;20231;-79
2021/03/26 05:18:43;;;;;;;14.02;12.52;;;8.50;99.90;;;;;;4814488;29;20214;-80
2021/03/26 05:21:15;;;;;;;16.40;12.25;;;8.50;99.90;;;;;;4814552;29;20222;-80
2021/03/26 05:23:46;;;;;;;14.45;10.70;;;8.40;99.90;;;;;;4814921;29;20232;-79
2021/03/26 05:26:13;;;;;;;14.32;12.88;;;8.40;99.90;;;;;;4815250;29;20322;-79
2021/03/26 05:28:42;;;;;;;16.45;14.70;;;8.40;99.90;;;;;;4815196;29;20218;-80
2021/03/26 05:31:14;;;;;;;18.85;15.38;;;8.30;99.90;;;;;;4815017;29;20514;-79
2021/03/26 05:33:45;;;;;;;24.98;16.75;;;8.30;99.90;;;;;;4815173;29;20221;-79
2021/03/26 05:36:19;;;;;;;15.25;13.68;;;8.20;99.90;;;;;;4815286;29;20235;-79
2021/03/26 05:38:48;;;;;;;16.95;15.15;;;8.20;99.90;;;;;;4816911;29;20221;-80
2021/03/26 05:41:33;;;;;;;15.13;13.50;;;8.20;99.90;;;;;;4817696;29;20385;-80
2021/03/26 05:44:24;;;;;;;16.33;14.55;;;8.10;99.90;;;;;;4817073;29;20248;-80
2021/03/26 05:47:09;;;;;;;16.80;13.07;;;8.10;99.90;;;;;;4804248;29;20257;-80
2021/03/26 05:49:52;;;;;;;16.38;14.68;;;8.10;99.90;;;;;;4816836;29;20225;-80
2021/03/26 05:52:37;;;;;;;14.90;13.30;;;8.10;99.90;;;;;;4816603;29;20238;-79
2021/03/26 05:55:16;;;;;;;20.38;15.13;;;8.10;99.90;;;;;;4817574;29;20222;-80
2021/03/26 05:57:54;;;;;;;15.65;14.05;;;8.10;99.90;;;;;;4817415;29;20264;-80
2021/03/26 06:00:54;;;;;;;19.38;16.23;;;8.20;99.90;;;;;;4817282;29;20221;-79
2021/03/26 06:03:46;;;;;;;15.02;13.43;;;8.20;99.90;;;;;;4813735;29;20226;-80
2021/03/26 06:06:39;;;;;;;15.32;13.48;;;8.20;99.90;;;;;;4816701;29;20239;-79
2021/03/26 06:09:50;;;;;;;17.15;14.98;;;8.20;99.90;;;;;;4817488;29;20214;-79
2021/03/26 06:12:33;;;;;;;15.15;13.57;;;8.30;99.90;;;;;;4807925;29;20574;-80
2021/03/26 06:15:31;;;;;;;15.35;13.68;;;8.30;99.90;;;;;;4817316;29;20221;-80
2021/03/26 06:18:19;;;;;;;16.08;14.52;;;8.40;99.90;;;;;;4817220;29;20379;-80
2021/03/26 06:21:17;;;;;;;16.48;14.85;;;8.50;99.90;;;;;;4817023;29;20298;-80
2021/03/26 06:24:06;;;;;;;18.65;14.48;;;8.60;99.90;;;;;;4815831;29;20237;-78
2021/03/26 06:27:02;;;;;;;16.40;14.80;;;8.70;99.90;;;;;;4809607;29;20317;-78
2021/03/26 06:29:42;;;;;;;17.10;14.48;;;8.80;99.90;;;;;;4809528;29;20214;-79
2021/03/26 06:32:47;;;;;;;18.17;16.00;;;8.90;99.90;;;;;;4810014;29;20222;-79
2021/03/26 06:35:55;;;;;;;17.58;15.57;;;9.00;99.90;;;;;;4809335;29;20215;-79
2021/03/26 06:38:59;;;;;;;15.90;14.35;;;9.10;99.90;;;;;;4809424;29;20218;-79
2021/03/26 06:41:40;;;;;;;21.08;15.82;;;9.30;99.90;;;;;;4805076;29;20246;-79
2021/03/26 06:44:46;;;;;;;16.98;14.95;;;9.50;99.90;;;;;;4810447;29;20237;-81
2021/03/26 06:47:22;;;;;;;16.45;13.95;;;9.60;99.90;;;;;;4808460;29;20242;-78
2021/03/26 06:50:00;;;;;;;13.82;12.38;;;9.80;99.90;;;;;;4810850;29;20219;-80
2021/03/26 06:52:45;;;;;;;18.60;14.70;;;9.90;99.90;;;;;;4813463;29;20563;-82
2021/03/26 06:55:36;;;;;;;18.00;14.90;;;10.00;99.90;;;;;;4809729;29;20721;-81
2021/03/26 06:58:36;;;;;;;18.02;15.52;;;10.10;99.90;;;;;;4808656;29;20228;-81
2021/03/26 07:01:18;;;;;;;15.88;14.00;;;10.20;99.90;;;;;;4809700;29;20280;-82
2021/03/26 07:04:15;;;;;;;16.10;13.47;;;10.30;99.50;;;;;;4809933;29;20237;-81
2021/03/26 07:07:04;;;;;;;20.70;13.05;;;10.30;99.60;;;;;;4793064;29;20457;-78
2021/03/26 07:10:04;;;;;;;15.60;14.00;;;10.40;99.30;;;;;;4808752;29;20213;-80
2021/03/26 07:13:00;;;;;;;15.93;13.03;;;10.40;99.30;;;;;;4807822;29;20483;-83
2021/03/26 07:15:32;;;;;;;17.60;13.70;;;10.50;99.30;;;;;;4807749;29;20470;-80
2021/03/26 07:18:43;;;;;;;15.13;11.70;;;10.50;99.10;;;;;;4807934;29;20552;-82
2021/03/26 07:21:26;;;;;;;14.57;13.10;;;10.70;99.20;;;;;;4804061;29;20489;-79
2021/03/26 07:24:29;;;;;;;16.90;13.10;;;10.80;98.80;;;;;;4807658;29;20923;-79
2021/03/26 07:27:05;;;;;;;13.80;11.20;;;10.90;98.50;;;;;;4806733;29;20481;-80
2021/03/26 07:29:47;;;;;;;15.03;12.13;;;11.00;98.40;;;;;;4807716;29;20461;-79
2021/03/26 07:32:25;;;;;;;12.70;11.50;;;11.10;98.20;;;;;;4807471;29;20462;-82
2021/03/26 07:35:15;;;;;;;13.37;12.03;;;11.10;97.70;;;;;;4807580;29;20464;-80
2021/03/26 07:37:55;;;;;;;12.97;11.40;;;11.10;97.60;;;;;;4807752;29;20486;-81
2021/03/26 07:40:47;;;;;;;14.07;12.77;;;11.10;97.50;;;;;;4807538;29;20465;-81
2021/03/26 07:43:43;;;;;;;13.07;10.80;;;11.10;97.50;;;;;;4807826;29;20462;-80
2021/03/26 07:46:42;;;;;;;14.43;12.37;;;11.10;97.70;;;;;;4809282;29;20831;-80
2021/03/26 07:49:41;;;;;;;13.50;11.93;;;11.20;97.90;;;;;;4794627;29;20523;-80
2021/03/26 07:52:15;;;;;;;15.43;14.00;;;11.30;97.90;;;;;;4805532;29;20463;-82
2021/03/26 07:55:06;;;;;;;11.97;10.83;;;11.30;97.80;;;;;;4804664;29;20444;-83
2021/03/26 07:57:54;;;;;;;13.70;12.30;;;11.40;97.70;;;;;;4800771;29;20564;-81
2021/03/26 08:00:33;;;;;;;15.93;13.33;;;11.50;97.10;;;;;;4806732;29;20463;-80
2021/03/26 08:03:18;;;;;;;14.57;10.93;;;11.60;97.00;;;;;;4805776;29;20454;-81
2021/03/26 08:05:54;;;;;;;13.03;10.97;;;11.60;96.90;;;;;;4804933;29;20566;-81
2021/03/26 08:08:39;;;;;;;11.80;10.60;;;11.70;96.80;;;;;;4804280;29;20461;-83
2021/03/26 08:11:17;;;;;;;11.43;10.33;;;11.80;96.70;;;;;;4802314;29;20900;-82
2021/03/26 08:14:32;;;;;;;11.87;10.80;;;11.80;96.30;;;;;;4804268;29;20466;-83
2021/03/26 08:17:51;;;;;;;9.97;8.97;;;11.90;95.80;;;;;;4718641;30;20494;-83
2021/03/26 08:28:02;;;;;;;12.10;10.77;;;12.20;95.40;;;;;;4728911;30;20496;-83
2021/03/26 08:30:48;;;;;;;11.57;10.43;;;12.20;95.50;;;;;;4720624;30;20549;-82
2021/03/26 08:33:23;;;;;;;14.67;12.70;;;12.40;95.80;;;;;;4721898;30;20525;-83
2021/03/26 08:36:06;;;;;;;14.13;11.17;;;12.40;95.30;;;;;;4767863;30;20974;-84
2021/03/26 08:38:42;;;;;;;14.83;12.00;;;12.50;95.30;;;;;;4795258;30;20471;-84
2021/03/26 08:41:15;;;;;;;13.90;12.13;;;12.60;95.10;;;;;;4795455;30;20529;-84
2021/03/26 08:43:49;;;;;;;12.70;11.40;;;12.70;95.20;;;;;;4794605;30;20475;-84
2021/03/26 08:46:20;;;;;;;11.60;10.50;;;12.80;94.50;;;;;;4795707;30;20480;-84
2021/03/26 08:48:54;;;;;;;11.93;10.83;;;12.90;94.40;;;;;;4795210;30;20508;-84
2021/03/26 08:52:01;;;;;;;12.60;11.30;;;13.00;94.00;;;;;;4795227;30;20457;-84
2021/03/26 08:54:48;;;;;;;15.07;10.17;;;13.10;93.90;;;;;;4794389;30;20449;-84
2021/03/26 08:57:21;;;;;;;14.23;10.17;;;13.20;93.70;;;;;;4794777;30;20509;-85
2021/03/26 08:59:59;;;;;;;12.47;11.27;;;13.30;93.40;;;;;;4793889;30;20543;-84
2021/03/26 09:03:07;;;;;;;16.37;10.50;;;13.40;92.30;;;;;;4796606;29;20481;-84
2021/03/26 09:05:55;;;;;;;12.37;11.17;;;13.50;93.00;;;;;;4796761;30;20527;-84
2021/03/26 09:08:32;;;;;;;12.40;10.13;;;13.60;92.80;;;;;;4797408;30;20849;-84
2021/03/26 09:11:24;;;;;;;17.83;13.30;;;13.70;92.50;;;;;;4797610;30;20473;-84
2021/03/26 09:14:06;;;;;;;16.47;12.47;;;13.80;92.50;;;;;;4796195;30;21035;-84
2021/03/26 09:16:36;;;;;;;13.07;11.27;;;13.90;92.40;;;;;;4797975;30;20477;-84
2021/03/26 09:19:10;;;;;;;14.07;11.70;;;14.00;92.50;;;;;;4798152;30;21014;-84
2021/03/26 09:21:47;;;;;;;14.90;11.80;;;14.10;92.80;;;;;;4797130;30;20482;-84
2021/03/26 09:24:47;;;;;;;12.83;11.60;;;14.20;92.40;;;;;;4796820;30;20849;-84
2021/03/26 09:27:30;;;;;;;13.70;10.87;;;14.40;91.60;;;;;;4798168;30;20504;-84
2021/03/26 09:30:09;;;;;;;16.53;11.63;;;14.40;91.40;;;;;;4797484;30;20836;-84
2021/03/26 09:32:44;;;;;;;12.67;10.20;;;14.50;91.60;;;;;;4797498;30;20484;-84
2021/03/26 09:35:15;;;;;;;19.50;12.43;;;14.50;91.40;;;;;;4797504;30;20564;-84
2021/03/26 09:38:05;;;;;;;10.90;9.77;;;14.50;91.30;;;;;;4797481;30;20512;-84
2021/03/26 09:44:44;;;;;;;13.10;11.70;;;14.80;91.20;;;;;;4746913;30;20538;-84
2021/03/26 09:47:17;;;;;;;12.87;10.83;;;15.00;91.00;;;;;;4762663;30;20601;-84
2021/03/26 09:49:51;;;;;;;14.67;12.97;;;15.20;91.00;;;;;;4797485;30;20489;-84
2021/03/26 09:52:26;;;;;;;10.73;9.73;;;15.30;90.80;;;;;;4796725;30;20468;-84
2021/03/26 09:54:54;;;;;;;12.27;11.07;;;15.50;90.40;;;;;;4796717;30;20461;-84
2021/03/26 09:57:31;;;;;;;11.97;10.77;;;15.70;88.00;;;;;;4796658;30;20867;-84
2021/03/26 10:00:36;;;;;;;12.80;10.67;;;15.80;87.90;;;;;;4797169;30;20441;-84
2021/03/26 10:03:11;;;;;;;14.30;10.97;;;15.90;87.30;;;;;;4797195;30;20521;-85
2021/03/26 10:05:48;;;;;;;11.50;10.40;;;16.00;87.40;;;;;;4796303;30;20505;-84
2021/03/26 10:08:38;;;;;;;12.17;10.70;;;16.10;87.30;;;;;;4796365;30;20994;-85
2021/03/26 10:11:07;;;;;;;11.43;10.07;;;16.30;87.60;;;;;;4796762;30;20466;-84
2021/03/26 10:13:43;;;;;;;11.40;10.17;;;16.40;85.80;;;;;;4795634;29;20459;-84
2021/03/26 10:16:11;;;;;;;10.97;9.53;;;16.50;81.70;;;;;;4796804;30;20485;-84
2021/03/26 10:18:42;;;;;;;9.77;8.77;;;16.40;82.80;;;;;;4796960;30;20466;-84
2021/03/26 10:21:13;;;;;;;10.27;9.33;;;16.40;80.80;;;;;;4797350;30;20494;-84
2021/03/26 10:24:06;;;;;;;10.43;8.70;;;16.50;80.80;;;;;;4797095;30;20981;-84
2021/03/26 10:26:41;;;;;;;11.10;8.90;;;16.60;80.30;;;;;;4796971;30;20492;-84
2021/03/26 10:29:28;;;;;;;9.20;8.30;;;16.60;78.40;;;;;;4796265;30;20476;-84
2021/03/26 10:31:55;;;;;;;12.70;9.50;;;16.60;77.10;;;;;;4796074;30;20469;-84
2021/03/26 10:34:35;;;;;;;9.00;8.20;;;16.50;77.00;;;;;;4796357;30;20505;-84
2021/03/26 10:37:24;;;;;;;9.30;8.40;;;16.40;78.00;;;;;;4794865;30;20545;-84
2021/03/26 10:39:55;;;;;;;7.90;7.10;;;16.50;76.80;;;;;;4795915;30;21001;-84
2021/03/26 10:42:33;;;;;;;8.63;7.87;;;16.60;77.30;;;;;;4796185;30;20564;-84
2021/03/26 10:45:25;;;;;;;8.30;7.60;;;16.80;77.40;;;;;;4796347;30;20523;-84
2021/03/26 10:47:56;;;;;;;10.80;8.60;;;17.00;76.40;;;;;;4796592;30;20497;-85
2021/03/26 10:50:47;;;;;;;8.40;7.60;;;17.20;75.40;;;;;;4796890;30;20463;-84
2021/03/26 10:53:18;;;;;;;7.83;7.03;;;17.20;74.60;;;;;;4791996;30;20481;-84
2021/03/26 10:55:49;;;;;;;7.60;6.90;;;17.20;74.70;;;;;;4796160;30;20449;-84
2021/03/26 10:58:32;;;;;;;10.80;8.80;;;17.20;73.70;;;;;;4795313;30;20519;-84
2021/03/26 11:01:10;;;;;;;7.20;6.50;;;17.30;71.90;;;;;;4795419;30;20454;-84
2021/03/26 11:03:43;;;;;;;7.40;6.80;;;17.30;71.90;;;;;;4795941;30;20473;-85
2021/03/26 11:06:18;;;;;;;9.80;7.33;;;17.40;72.30;;;;;;4795583;30;20483;-84
2021/03/26 11:08:50;;;;;;;8.33;5.13;;;17.70;70.60;;;;;;4795530;30;20476;-84
2021/03/26 11:11:39;;;;;;;6.20;5.60;;;18.00;69.10;;;;;;4795383;30;20460;-84
2021/03/26 11:14:42;;;;;;;5.50;5.00;;;18.10;66.90;;;;;;4795083;30;20468;-84
2021/03/26 11:17:36;;;;;;;7.30;6.03;;;18.40;67.20;;;;;;4794826;30;20480;-84
2021/03/26 11:20:29;;;;;;;7.67;5.90;;;18.90;65.50;;;;;;4795519;30;20437;-84
2021/03/26 11:23:00;;;;;;;7.20;5.33;;;19.00;64.20;;;;;;4795258;30;20467;-85
2021/03/26 11:25:34;;;;;;;6.83;4.70;;;19.30;62.20;;;;;;4794609;30;20500;-84
2021/03/26 11:28:05;;;;;;;7.10;6.40;;;19.60;61.00;;;;;;4795765;30;20469;-85
2021/03/26 11:30:55;;;;;;;5.97;5.03;;;19.70;61.00;;;;;;4796521;30;20468;-85
2021/03/26 11:33:38;;;;;;;6.07;5.53;;;20.00;59.40;;;;;;4796764;30;20468;-85
2021/03/26 11:36:43;;;;;;;5.00;4.60;;;20.40;59.00;;;;;;4797496;30;20483;-86
2021/03/26 11:39:20;;;;;;;6.70;6.17;;;20.50;57.50;;;;;;4797696;30;21039;-86
2021/03/26 13:31:38;;;;;;;6.07;5.47;;;25.40;40.60;;;;;;4179069;27;20498;-84
2021/03/26 13:34:17;;;;;;;7.07;5.13;;;25.70;40.60;;;;;;4830678;29;20600;-83
2021/03/26 13:36:55;;;;;;;6.43;5.83;;;25.70;40.40;;;;;;4832375;29;20484;-84
2021/03/26 13:39:33;;;;;;;5.13;4.73;;;25.90;40.40;;;;;;4832333;29;20478;-84
2021/03/26 13:42:19;;;;;;;5.63;5.13;;;26.10;39.40;;;;;;4831555;29;20470;-84
2021/03/26 13:44:52;;;;;;;5.60;4.53;;;26.60;39.10;;;;;;4831741;29;20501;-84
2021/03/26 13:47:30;;;;;;;5.63;5.13;;;26.90;38.60;;;;;;4831579;29;20484;-84
2021/03/26 13:50:28;;;;;;;4.70;4.30;;;26.60;37.60;;;;;;4831940;29;20477;-83
2021/03/26 13:53:06;;;;;;;5.47;5.00;;;25.80;38.30;;;;;;4831346;29;20966;-84
2021/03/26 13:55:35;;;;;;;4.33;3.80;;;25.10;39.00;;;;;;4831799;29;20439;-83
2021/03/26 13:58:14;;;;;;;3.50;3.20;;;25.00;39.40;;;;;;4832417;29;20460;-84
2021/03/26 14:00:43;;;;;;;4.13;3.73;;;24.90;38.50;;;;;;4832294;29;20462;-84
2021/03/26 14:03:27;;;;;;;4.53;4.13;;;24.30;39.10;;;;;;4831447;29;20470;-84
2021/03/26 14:06:05;;;;;;;4.10;3.33;;;23.70;39.40;;;;;;4831324;29;20500;-84
2021/03/26 14:08:37;;;;;;;4.93;4.27;;;23.30;40.10;;;;;;4831420;29;20461;-84
2021/03/26 14:11:16;;;;;;;4.33;3.67;;;22.90;40.50;;;;;;4831632;29;20509;-84
2021/03/26 14:13:53;;;;;;;4.60;3.50;;;22.40;41.10;;;;;;4830813;29;21150;-84
2021/03/26 14:16:22;;;;;;;3.90;3.60;;;22.10;41.60;;;;;;4830761;29;20522;-84
2021/03/26 14:19:00;;;;;;;5.73;4.23;;;22.00;42.20;;;;;;4831050;29;20463;-84
2021/03/26 14:21:42;;;;;;;3.57;3.33;;;21.90;42.50;;;;;;4831358;29;20460;-84
2021/03/26 14:24:22;;;;;;;4.13;3.73;;;22.00;42.70;;;;;;4831175;29;21169;-84
2021/03/26 14:27:07;;;;;;;3.97;3.13;;;22.10;42.60;;;;;;4832330;29;20835;-84
2021/03/26 14:29:39;;;;;;;2.87;2.53;;;22.30;42.50;;;;;;4830884;29;20471;-83
2021/03/26 14:32:11;;;;;;;2.93;2.73;;;22.70;43.00;;;;;;4831429;29;20817;-83
2021/03/26 14:34:46;;;;;;;3.93;3.63;;;22.90;42.00;;;;;;4831417;29;20458;-83
2021/03/26 14:37:19;;;;;;;3.40;3.20;;;23.10;41.90;;;;;;4832104;29;20514;-84
2021/03/26 14:39:47;;;;;;;2.73;2.53;;;23.10;41.50;;;;;;4831805;29;20465;-83
2021/03/26 14:42:25;;;;;;;3.60;2.37;;;22.90;40.00;;;;;;4830674;29;20541;-84
2021/03/26 14:44:55;;;;;;;4.20;3.10;;;22.40;39.40;;;;;;4832048;29;20531;-84
2021/03/26 14:47:24;;;;;;;2.73;2.53;;;22.30;39.70;;;;;;4831312;29;20476;-83
2021/03/26 14:49:59;;;;;;;7.20;3.13;;;22.20;40.20;;;;;;4832145;29;20465;-84
2021/03/26 14:52:32;;;;;;;3.30;3.00;;;22.10;40.70;;;;;;4831691;29;20493;-83
2021/03/26 14:55:06;;;;;;;5.30;3.10;;;22.00;41.20;;;;;;4831529;29;20521;-84
2021/03/26 14:57:38;;;;;;;3.23;3.03;;;21.70;41.60;;;;;;4831934;29;20494;-84
2021/03/26 15:00:24;;;;;;;6.17;3.60;;;21.50;41.90;;;;;;4829999;29;20520;-84
2021/03/26 15:03:03;;;;;;;3.23;2.93;;;21.50;41.40;;;;;;4830910;29;20464;-84
2021/03/26 15:05:34;;;;;;;5.60;3.37;;;21.60;42.10;;;;;;4831805;29;20551;-84
2021/03/26 15:08:05;;;;;;;3.83;3.30;;;21.70;42.70;;;;;;4831235;29;20534;-84
2021/03/26 15:10:38;;;;;;;3.50;3.20;;;21.70;42.70;;;;;;4830858;29;20459;-83
2021/03/26 15:13:11;;;;;;;5.93;3.67;;;21.80;41.40;;;;;;4830195;29;20480;-84
2021/03/26 15:15:44;;;;;;;5.00;3.80;;;21.70;41.40;;;;;;4830780;29;20521;-84
2021/03/26 15:18:40;;;;;;;3.70;3.40;;;21.30;40.60;;;;;;4830478;29;20501;-84
2021/03/26 15:21:14;;;;;;;5.40;3.67;;;21.40;41.40;;;;;;4830881;29;20472;-84
2021/03/26 15:23:45;;;;;;;3.00;2.80;;;21.40;41.80;;;;;;4830280;29;20520;-84
2021/03/26 15:26:23;;;;;;;3.90;3.40;;;21.50;41.80;;;;;;4830590;29;20505;-84
2021/03/26 15:28:53;;;;;;;3.83;3.20;;;21.50;41.70;;;;;;4830119;29;20467;-84